sensor_id;sensor_type;location;lat;lon;timestamp;pressure;altitude;pressure_sealevel;temperature;humidity
78210;BME280;67485;48.816;9.930;2023-04-24T00:00:04;95826.19;;;10.10;91.25
78210;BME280;67485;48.816;9.930;2023-04-24T00:02:38;95821.19;;;10.04;91.96
78210;BME280;67485;48.816;9.930;2023-04-24T00:05:05;95817.16;;;9.97;92.73
78210;BME280;67485;48.816;9.930;2023-04-24T00:07:31;95831.56;;;9.85;94.11
78210;BME280;67485;48.816;9.930;2023-04-24T00:09:57;95830.72;;;9.84;94.49
78210;BME280;67485;48.816;9.930;2023-04-24T00:12:23;95837.00;;;9.80;94.26
78210;BME280;67485;48.816;9.930;2023-04-24T00:14:49;95842.34;;;9.77;94.29
78210;BME280;67485;48.816;9.930;2023-04-24T00:17:14;95841.19;;;9.84;94.34
78210;BME280;67485;48.816;9.930;2023-04-24T00:19:40;95840.28;;;9.85;93.88
78210;BME280;67485;48.816;9.930;2023-04-24T00:22:06;95840.16;;;9.88;93.24
78210;BME280;67485;48.816;9.930;2023-04-24T00:24:32;95843.56;;;9.90;92.75
78210;BME280;67485;48.816;9.930;2023-04-24T00:26:58;95849.31;;;9.99;92.19
78210;BME280;67485;48.816;9.930;2023-04-24T00:29:24;95846.47;;;10.05;91.58
78210;BME280;67485;48.816;9.930;2023-04-24T00:31:50;95847.94;;;10.12;91.18
78210;BME280;67485;48.816;9.930;2023-04-24T00:34:16;95835.75;;;10.11;91.00
78210;BME280;67485;48.816;9.930;2023-04-24T00:36:41;95834.84;;;10.12;90.92
78210;BME280;67485;48.816;9.930;2023-04-24T00:39:07;95841.66;;;10.16;90.99
78210;BME280;67485;48.816;9.930;2023-04-24T00:41:34;95843.44;;;10.16;90.89
78210;BME280;67485;48.816;9.930;2023-04-24T00:44:00;95835.50;;;10.17;90.23
78210;BME280;67485;48.816;9.930;2023-04-24T00:46:26;95833.78;;;10.16;90.37
78210;BME280;67485;48.816;9.930;2023-04-24T00:48:52;95833.75;;;10.18;89.68
78210;BME280;67485;48.816;9.930;2023-04-24T00:51:17;95832.81;;;10.19;89.77
78210;BME280;67485;48.816;9.930;2023-04-24T00:53:43;95838.91;;;10.19;89.33
78210;BME280;67485;48.816;9.930;2023-04-24T00:56:09;95828.69;;;10.13;89.18
78210;BME280;67485;48.816;9.930;2023-04-24T00:58:35;95831.25;;;10.15;89.49
78210;BME280;67485;48.816;9.930;2023-04-24T01:01:01;95830.41;;;10.14;88.81
78210;BME280;67485;48.816;9.930;2023-04-24T01:03:29;95838.31;;;10.13;88.34
78210;BME280;67485;48.816;9.930;2023-04-24T01:05:58;95834.66;;;10.17;88.80
78210;BME280;67485;48.816;9.930;2023-04-24T01:08:26;95838.13;;;10.17;88.64
78210;BME280;67485;48.816;9.930;2023-04-24T01:10:52;95826.81;;;10.17;88.76
78210;BME280;67485;48.816;9.930;2023-04-24T01:13:19;95827.47;;;10.22;88.49
78210;BME280;67485;48.816;9.930;2023-04-24T01:15:45;95826.50;;;10.25;87.87
78210;BME280;67485;48.816;9.930;2023-04-24T01:18:11;95828.19;;;10.26;88.05
78210;BME280;67485;48.816;9.930;2023-04-24T01:20:41;95824.78;;;10.23;87.83
78210;BME280;67485;48.816;9.930;2023-04-24T01:23:09;95823.22;;;10.19;87.90
78210;BME280;67485;48.816;9.930;2023-04-24T01:25:35;95825.75;;;10.21;88.23
78210;BME280;67485;48.816;9.930;2023-04-24T01:28:01;95816.28;;;10.18;88.59
78210;BME280;67485;48.816;9.930;2023-04-24T01:30:27;95816.28;;;10.18;88.86
78210;BME280;67485;48.816;9.930;2023-04-24T01:32:53;95804.56;;;10.06;89.46
78210;BME280;67485;48.816;9.930;2023-04-24T01:35:20;95808.81;;;10.09;88.75
78210;BME280;67485;48.816;9.930;2023-04-24T01:37:46;95806.19;;;10.09;89.42
78210;BME280;67485;48.816;9.930;2023-04-24T01:40:12;95800.97;;;10.09;89.20
78210;BME280;67485;48.816;9.930;2023-04-24T01:42:38;95797.53;;;10.07;89.36
78210;BME280;67485;48.816;9.930;2023-04-24T01:45:05;95804.84;;;9.99;89.86
78210;BME280;67485;48.816;9.930;2023-04-24T01:47:32;95802.28;;;9.97;90.16
78210;BME280;67485;48.816;9.930;2023-04-24T01:49:58;95799.50;;;10.02;90.12
78210;BME280;67485;48.816;9.930;2023-04-24T01:52:24;95795.91;;;10.04;89.59
78210;BME280;67485;48.816;9.930;2023-04-24T01:54:50;95793.28;;;10.04;89.20
78210;BME280;67485;48.816;9.930;2023-04-24T01:57:16;95790.84;;;10.00;88.92
78210;BME280;67485;48.816;9.930;2023-04-24T01:59:42;95789.88;;;10.02;89.11
78210;BME280;67485;48.816;9.930;2023-04-24T02:02:07;95794.13;;;10.05;88.57
78210;BME280;67485;48.816;9.930;2023-04-24T02:04:34;95792.56;;;10.01;88.56
78210;BME280;67485;48.816;9.930;2023-04-24T02:07:00;95787.75;;;9.90;88.73
78210;BME280;67485;48.816;9.930;2023-04-24T02:09:26;95789.53;;;9.89;89.09
78210;BME280;67485;48.816;9.930;2023-04-24T02:11:51;95794.50;;;9.96;89.07
78210;BME280;67485;48.816;9.930;2023-04-24T02:14:17;95782.22;;;9.98;88.73
78210;BME280;67485;48.816;9.930;2023-04-24T02:16:43;95791.09;;;9.94;89.24
78210;BME280;67485;48.816;9.930;2023-04-24T02:19:09;95787.47;;;9.98;89.09
78210;BME280;67485;48.816;9.930;2023-04-24T02:21:35;95778.66;;;9.99;88.48
78210;BME280;67485;48.816;9.930;2023-04-24T02:24:01;95779.66;;;9.96;88.03
78210;BME280;67485;48.816;9.930;2023-04-24T02:26:27;95783.06;;;9.98;88.04
78210;BME280;67485;48.816;9.930;2023-04-24T02:28:53;95782.47;;;9.92;87.88
78210;BME280;67485;48.816;9.930;2023-04-24T02:31:20;95781.59;;;9.91;87.74
78210;BME280;67485;48.816;9.930;2023-04-24T02:33:47;95784.16;;;9.93;87.39
78210;BME280;67485;48.816;9.930;2023-04-24T02:36:13;95783.44;;;9.89;87.50
78210;BME280;67485;48.816;9.930;2023-04-24T02:38:39;95781.25;;;9.78;88.24
78210;BME280;67485;48.816;9.930;2023-04-24T02:41:05;95779.16;;;9.86;88.31
78210;BME280;67485;48.816;9.930;2023-04-24T02:43:32;95780.03;;;9.87;87.52
78210;BME280;67485;48.816;9.930;2023-04-24T02:45:58;95773.50;;;9.75;87.99
78210;BME280;67485;48.816;9.930;2023-04-24T02:48:24;95775.34;;;9.73;87.88
78210;BME280;67485;48.816;9.930;2023-04-24T02:50:50;95779.94;;;9.68;88.45
78210;BME280;67485;48.816;9.930;2023-04-24T02:53:16;95773.47;;;9.54;88.96
78210;BME280;67485;48.816;9.930;2023-04-24T02:55:42;95778.81;;;9.51;89.81
78210;BME280;67485;48.816;9.930;2023-04-24T02:58:08;95779.53;;;9.55;89.72
78210;BME280;67485;48.816;9.930;2023-04-24T03:00:34;95778.75;;;9.53;89.71
78210;BME280;67485;48.816;9.930;2023-04-24T03:03:00;95780.88;;;9.43;90.05
78210;BME280;67485;48.816;9.930;2023-04-24T03:05:25;95781.84;;;9.40;90.22
78210;BME280;67485;48.816;9.930;2023-04-24T03:07:52;95779.31;;;9.39;90.17
78210;BME280;67485;48.816;9.930;2023-04-24T03:10:20;95785.44;;;9.38;90.35
78210;BME280;67485;48.816;9.930;2023-04-24T03:12:48;95779.16;;;9.42;89.80
78210;BME280;67485;48.816;9.930;2023-04-24T03:15:14;95777.34;;;9.44;89.56
78210;BME280;67485;48.816;9.930;2023-04-24T03:17:39;95774.78;;;9.43;89.45
78210;BME280;67485;48.816;9.930;2023-04-24T03:20:06;95779.16;;;9.42;89.39
78210;BME280;67485;48.816;9.930;2023-04-24T03:22:34;95774.06;;;9.39;89.68
78210;BME280;67485;48.816;9.930;2023-04-24T03:25:03;95771.16;;;9.47;89.96
78210;BME280;67485;48.816;9.930;2023-04-24T03:27:29;95764.81;;;9.52;89.52
78210;BME280;67485;48.816;9.930;2023-04-24T03:30:00;95770.84;;;9.54;89.50
78210;BME280;67485;48.816;9.930;2023-04-24T03:32:33;95779.75;;;9.50;89.43
78210;BME280;67485;48.816;9.930;2023-04-24T03:35:00;95777.00;;;9.53;89.39
78210;BME280;67485;48.816;9.930;2023-04-24T03:37:26;95782.47;;;9.47;88.80
78210;BME280;67485;48.816;9.930;2023-04-24T03:40:04;95790.38;;;9.46;89.41
78210;BME280;67485;48.816;9.930;2023-04-24T03:42:33;95791.28;;;9.45;89.84
78210;BME280;67485;48.816;9.930;2023-04-24T03:44:59;95790.13;;;9.52;89.69
78210;BME280;67485;48.816;9.930;2023-04-24T03:47:29;95786.78;;;9.48;89.34
78210;BME280;67485;48.816;9.930;2023-04-24T03:49:57;95787.59;;;9.50;89.33
78210;BME280;67485;48.816;9.930;2023-04-24T03:52:23;95788.56;;;9.48;89.66
78210;BME280;67485;48.816;9.930;2023-04-24T03:54:50;95790.66;;;9.38;90.00
78210;BME280;67485;48.816;9.930;2023-04-24T03:57:15;95790.22;;;9.27;91.53
78210;BME280;67485;48.816;9.930;2023-04-24T03:59:52;95800.78;;;9.23;93.06
78210;BME280;67485;48.816;9.930;2023-04-24T04:02:19;95799.19;;;9.19;94.47
78210;BME280;67485;48.816;9.930;2023-04-24T04:04:45;95794.81;;;9.20;94.54
78210;BME280;67485;48.816;9.930;2023-04-24T04:07:10;95795.78;;;9.17;95.18
78210;BME280;67485;48.816;9.930;2023-04-24T04:09:36;95794.72;;;9.23;95.47
78210;BME280;67485;48.816;9.930;2023-04-24T04:12:02;95790.09;;;9.30;94.62
78210;BME280;67485;48.816;9.930;2023-04-24T04:14:28;95787.91;;;9.41;93.16
78210;BME280;67485;48.816;9.930;2023-04-24T04:16:54;95796.44;;;9.46;92.36
78210;BME280;67485;48.816;9.930;2023-04-24T04:19:20;95797.91;;;9.53;91.88
78210;BME280;67485;48.816;9.930;2023-04-24T04:21:45;95803.75;;;9.60;91.08
78210;BME280;67485;48.816;9.930;2023-04-24T04:24:20;95801.31;;;9.55;90.94
78210;BME280;67485;48.816;9.930;2023-04-24T04:26:48;95794.38;;;9.54;90.95
78210;BME280;67485;48.816;9.930;2023-04-24T04:29:24;95804.13;;;9.51;90.80
78210;BME280;67485;48.816;9.930;2023-04-24T04:31:50;95803.06;;;9.55;90.84
78210;BME280;67485;48.816;9.930;2023-04-24T04:34:16;95811.16;;;9.49;91.16
78210;BME280;67485;48.816;9.930;2023-04-24T04:36:42;95807.09;;;9.41;92.81
78210;BME280;67485;48.816;9.930;2023-04-24T04:39:44;95808.16;;;9.36;93.06
78210;BME280;67485;48.816;9.930;2023-04-24T04:42:16;95815.09;;;9.37;93.38
78210;BME280;67485;48.816;9.930;2023-04-24T04:44:43;95807.03;;;9.43;93.30
78210;BME280;67485;48.816;9.930;2023-04-24T04:47:15;95805.31;;;9.42;92.87
78210;BME280;67485;48.816;9.930;2023-04-24T04:49:41;95811.88;;;9.52;92.28
78210;BME280;67485;48.816;9.930;2023-04-24T04:52:15;95809.84;;;9.61;91.74
78210;BME280;67485;48.816;9.930;2023-04-24T04:54:43;95812.16;;;9.68;90.58
78210;BME280;67485;48.816;9.930;2023-04-24T04:57:10;95808.16;;;9.82;89.43
78210;BME280;67485;48.816;9.930;2023-04-24T04:59:36;95815.09;;;9.83;87.54
78210;BME280;67485;48.816;9.930;2023-04-24T05:02:07;95815.94;;;9.83;86.98
78210;BME280;67485;48.816;9.930;2023-04-24T05:04:33;95814.13;;;9.85;87.08
78210;BME280;67485;48.816;9.930;2023-04-24T05:06:58;95812.75;;;9.75;86.86
78210;BME280;67485;48.816;9.930;2023-04-24T05:09:26;95822.72;;;9.87;86.67
78210;BME280;67485;48.816;9.930;2023-04-24T05:11:59;95828.59;;;9.94;86.09
78210;BME280;67485;48.816;9.930;2023-04-24T05:14:27;95831.22;;;9.94;85.56
78210;BME280;67485;48.816;9.930;2023-04-24T05:16:53;95830.09;;;10.00;85.70
78210;BME280;67485;48.816;9.930;2023-04-24T05:19:20;95846.72;;;9.99;86.30
78210;BME280;67485;48.816;9.930;2023-04-24T05:21:46;95857.44;;;9.93;87.13
78210;BME280;67485;48.816;9.930;2023-04-24T05:24:12;95855.19;;;9.83;88.00
78210;BME280;67485;48.816;9.930;2023-04-24T05:26:52;95878.88;;;9.80;89.03
78210;BME280;67485;48.816;9.930;2023-04-24T05:29:23;95914.91;;;9.72;91.20
78210;BME280;67485;48.816;9.930;2023-04-24T05:31:48;95907.88;;;9.74;91.30
78210;BME280;67485;48.816;9.930;2023-04-24T05:34:14;95904.38;;;9.73;88.59
78210;BME280;67485;48.816;9.930;2023-04-24T05:36:43;95919.69;;;9.61;88.85
78210;BME280;67485;48.816;9.930;2023-04-24T05:39:09;95928.59;;;9.56;88.26
78210;BME280;67485;48.816;9.930;2023-04-24T05:41:35;95916.94;;;9.40;87.49
78210;BME280;67485;48.816;9.930;2023-04-24T05:44:00;95932.50;;;9.19;86.89
78210;BME280;67485;48.816;9.930;2023-04-24T05:46:26;95944.19;;;9.09;87.13
78210;BME280;67485;48.816;9.930;2023-04-24T05:48:52;95941.25;;;8.93;88.13
78210;BME280;67485;48.816;9.930;2023-04-24T05:51:18;95945.03;;;8.84;89.12
78210;BME280;67485;48.816;9.930;2023-04-24T05:53:43;95938.78;;;8.88;89.70
78210;BME280;67485;48.816;9.930;2023-04-24T05:56:10;95943.94;;;8.91;89.34
78210;BME280;67485;48.816;9.930;2023-04-24T05:58:36;95938.31;;;9.02;89.39
78210;BME280;67485;48.816;9.930;2023-04-24T06:01:03;95940.91;;;9.04;89.09
78210;BME280;67485;48.816;9.930;2023-04-24T06:03:29;95924.72;;;8.92;89.04
78210;BME280;67485;48.816;9.930;2023-04-24T06:05:55;95953.44;;;8.92;89.84
78210;BME280;67485;48.816;9.930;2023-04-24T06:08:21;95954.75;;;9.06;89.41
78210;BME280;67485;48.816;9.930;2023-04-24T06:10:48;95952.13;;;9.06;88.68
78210;BME280;67485;48.816;9.930;2023-04-24T06:13:15;95969.47;;;9.08;88.14
78210;BME280;67485;48.816;9.930;2023-04-24T06:15:52;95960.38;;;9.20;87.79
78210;BME280;67485;48.816;9.930;2023-04-24T06:18:27;95967.25;;;9.23;87.01
78210;BME280;67485;48.816;9.930;2023-04-24T06:20:52;95963.88;;;9.19;87.14
78210;BME280;67485;48.816;9.930;2023-04-24T06:23:18;95970.00;;;9.18;86.88
78210;BME280;67485;48.816;9.930;2023-04-24T06:25:44;95972.41;;;9.24;86.66
78210;BME280;67485;48.816;9.930;2023-04-24T06:28:11;95969.69;;;9.28;86.62
78210;BME280;67485;48.816;9.930;2023-04-24T06:30:36;95971.19;;;9.35;86.55
78210;BME280;67485;48.816;9.930;2023-04-24T06:33:02;95984.94;;;9.40;85.88
78210;BME280;67485;48.816;9.930;2023-04-24T06:35:28;95980.09;;;9.29;85.97
78210;BME280;67485;48.816;9.930;2023-04-24T06:37:54;95983.13;;;9.42;86.66
78210;BME280;67485;48.816;9.930;2023-04-24T06:40:22;95979.63;;;9.43;86.91
78210;BME280;67485;48.816;9.930;2023-04-24T06:42:47;95970.53;;;9.53;86.58
78210;BME280;67485;48.816;9.930;2023-04-24T06:45:13;95982.78;;;9.51;86.77
78210;BME280;67485;48.816;9.930;2023-04-24T06:47:39;95975.91;;;9.74;86.72
78210;BME280;67485;48.816;9.930;2023-04-24T06:50:05;95982.13;;;9.94;85.50
78210;BME280;67485;48.816;9.930;2023-04-24T06:52:31;95978.44;;;9.99;84.73
78210;BME280;67485;48.816;9.930;2023-04-24T06:55:01;95977.56;;;9.99;84.88
78210;BME280;67485;48.816;9.930;2023-04-24T06:57:28;95977.72;;;9.96;85.17
78210;BME280;67485;48.816;9.930;2023-04-24T06:59:54;95969.75;;;10.21;84.47
78210;BME280;67485;48.816;9.930;2023-04-24T07:02:19;95979.63;;;10.38;83.33
78210;BME280;67485;48.816;9.930;2023-04-24T07:04:45;95983.19;;;10.58;83.12
78210;BME280;67485;48.816;9.930;2023-04-24T07:07:12;95966.31;;;10.65;82.40
78210;BME280;67485;48.816;9.930;2023-04-24T07:09:40;95970.41;;;10.93;81.33
78210;BME280;67485;48.816;9.930;2023-04-24T07:12:09;95964.69;;;11.26;80.24
78210;BME280;67485;48.816;9.930;2023-04-24T07:14:39;95962.19;;;11.43;79.01
78210;BME280;67485;48.816;9.930;2023-04-24T07:17:05;95971.75;;;11.24;79.87
78210;BME280;67485;48.816;9.930;2023-04-24T07:19:33;95965.66;;;11.83;79.28
78210;BME280;67485;48.816;9.930;2023-04-24T07:22:01;95967.88;;;12.31;76.35
78210;BME280;67485;48.816;9.930;2023-04-24T07:24:26;95968.94;;;12.46;76.39
78210;BME280;67485;48.816;9.930;2023-04-24T07:26:54;95961.13;;;12.81;74.21
78210;BME280;67485;48.816;9.930;2023-04-24T07:29:20;95966.00;;;13.24;71.59
78210;BME280;67485;48.816;9.930;2023-04-24T07:31:46;95955.94;;;13.32;70.97
78210;BME280;67485;48.816;9.930;2023-04-24T07:34:12;95957.91;;;13.62;68.60
78210;BME280;67485;48.816;9.930;2023-04-24T07:36:38;95953.78;;;13.40;69.29
78210;BME280;67485;48.816;9.930;2023-04-24T07:39:04;95961.72;;;13.74;66.50
78210;BME280;67485;48.816;9.930;2023-04-24T07:41:31;95976.53;;;13.41;68.24
78210;BME280;67485;48.816;9.930;2023-04-24T07:43:57;95975.22;;;13.50;69.48
78210;BME280;67485;48.816;9.930;2023-04-24T07:46:23;95980.47;;;13.15;68.50
78210;BME280;67485;48.816;9.930;2023-04-24T07:48:50;95970.22;;;12.37;69.61
78210;BME280;67485;48.816;9.930;2023-04-24T07:51:15;95970.09;;;12.21;70.70
78210;BME280;67485;48.816;9.930;2023-04-24T07:53:42;95974.97;;;13.02;69.06
78210;BME280;67485;48.816;9.930;2023-04-24T07:56:08;95981.47;;;13.12;67.40
78210;BME280;67485;48.816;9.930;2023-04-24T07:58:34;95979.03;;;13.78;66.14
78210;BME280;67485;48.816;9.930;2023-04-24T08:00:59;95976.66;;;14.55;63.21
78210;BME280;67485;48.816;9.930;2023-04-24T08:03:25;95968.53;;;13.94;64.04
78210;BME280;67485;48.816;9.930;2023-04-24T08:05:51;95971.25;;;15.04;61.45
78210;BME280;67485;48.816;9.930;2023-04-24T08:08:17;95970.78;;;14.34;60.90
78210;BME280;67485;48.816;9.930;2023-04-24T08:10:43;95980.00;;;13.07;65.58
78210;BME280;67485;48.816;9.930;2023-04-24T08:13:08;95978.00;;;13.29;66.60
78210;BME280;67485;48.816;9.930;2023-04-24T08:15:34;95985.16;;;13.78;64.80
78210;BME280;67485;48.816;9.930;2023-04-24T08:18:00;95985.75;;;14.33;63.41
78210;BME280;67485;48.816;9.930;2023-04-24T08:20:26;95982.06;;;13.70;63.96
78210;BME280;67485;48.816;9.930;2023-04-24T08:22:52;95987.78;;;12.73;66.95
78210;BME280;67485;48.816;9.930;2023-04-24T08:25:17;95994.50;;;12.42;69.49
78210;BME280;67485;48.816;9.930;2023-04-24T08:27:44;96003.44;;;12.00;70.99
78210;BME280;67485;48.816;9.930;2023-04-24T08:30:10;96011.88;;;11.46;73.69
78210;BME280;67485;48.816;9.930;2023-04-24T08:32:36;96019.22;;;10.97;77.87
78210;BME280;67485;48.816;9.930;2023-04-24T08:35:02;96038.44;;;10.51;80.43
78210;BME280;67485;48.816;9.930;2023-04-24T08:37:28;96032.44;;;10.26;80.70
78210;BME280;67485;48.816;9.930;2023-04-24T08:39:54;96037.44;;;10.32;80.85
78210;BME280;67485;48.816;9.930;2023-04-24T08:42:20;96036.09;;;10.67;80.86
78210;BME280;67485;48.816;9.930;2023-04-24T08:44:46;96031.13;;;11.04;79.59
78210;BME280;67485;48.816;9.930;2023-04-24T08:47:15;96039.78;;;11.89;76.20
78210;BME280;67485;48.816;9.930;2023-04-24T08:49:42;96023.91;;;12.87;71.98
78210;BME280;67485;48.816;9.930;2023-04-24T08:52:08;96027.63;;;13.37;69.28
78210;BME280;67485;48.816;9.930;2023-04-24T08:54:34;96013.38;;;14.26;66.54
78210;BME280;67485;48.816;9.930;2023-04-24T08:57:01;96020.13;;;14.64;63.32
78210;BME280;67485;48.816;9.930;2023-04-24T08:59:28;96022.84;;;14.94;61.95
78210;BME280;67485;48.816;9.930;2023-04-24T09:01:54;96011.50;;;14.28;63.49
78210;BME280;67485;48.816;9.930;2023-04-24T09:04:21;96028.56;;;12.82;65.17
78210;BME280;67485;48.816;9.930;2023-04-24T09:06:51;96030.09;;;11.91;68.87
78210;BME280;67485;48.816;9.930;2023-04-24T09:09:17;96036.03;;;11.55;71.84
78210;BME280;67485;48.816;9.930;2023-04-24T09:11:44;96024.63;;;11.56;72.95
78210;BME280;67485;48.816;9.930;2023-04-24T09:14:10;96040.00;;;11.43;73.22
78210;BME280;67485;48.816;9.930;2023-04-24T09:16:36;96036.38;;;11.04;72.34
78210;BME280;67485;48.816;9.930;2023-04-24T09:19:02;96042.66;;;10.78;74.59
78210;BME280;67485;48.816;9.930;2023-04-24T09:21:32;96048.22;;;10.70;73.07
78210;BME280;67485;48.816;9.930;2023-04-24T09:24:06;96048.69;;;10.58;70.80
78210;BME280;67485;48.816;9.930;2023-04-24T09:26:35;96044.81;;;10.68;69.34
78210;BME280;67485;48.816;9.930;2023-04-24T09:29:02;96052.47;;;10.95;68.23
78210;BME280;67485;48.816;9.930;2023-04-24T09:31:29;96048.13;;;11.36;65.80
78210;BME280;67485;48.816;9.930;2023-04-24T09:33:57;96053.50;;;12.35;65.12
78210;BME280;67485;48.816;9.930;2023-04-24T09:36:35;96052.50;;;12.76;62.50
78210;BME280;67485;48.816;9.930;2023-04-24T09:39:06;96054.78;;;14.56;57.13
78210;BME280;67485;48.816;9.930;2023-04-24T09:41:33;96049.13;;;15.72;52.49
78210;BME280;67485;48.816;9.930;2023-04-24T09:44:20;96049.19;;;17.28;49.61
78210;BME280;67485;48.816;9.930;2023-04-24T09:46:50;96044.84;;;17.00;50.15
78210;BME280;67485;48.816;9.930;2023-04-24T09:49:24;96045.75;;;18.07;47.02
78210;BME280;67485;48.816;9.930;2023-04-24T09:51:50;96049.81;;;17.59;47.78
78210;BME280;67485;48.816;9.930;2023-04-24T09:54:20;96032.84;;;16.38;47.37
78210;BME280;67485;48.816;9.930;2023-04-24T09:56:50;96036.41;;;14.38;51.86
78210;BME280;67485;48.816;9.930;2023-04-24T09:59:18;96040.50;;;13.24;56.34
78210;BME280;67485;48.816;9.930;2023-04-24T10:01:44;96053.44;;;12.56;60.34
78210;BME280;67485;48.816;9.930;2023-04-24T10:04:21;96066.00;;;12.30;63.03
78210;BME280;67485;48.816;9.930;2023-04-24T10:06:50;96076.81;;;11.82;64.19
78210;BME280;67485;48.816;9.930;2023-04-24T10:09:17;96079.31;;;11.65;64.02
78210;BME280;67485;48.816;9.930;2023-04-24T10:11:48;96080.63;;;11.75;64.38
78210;BME280;67485;48.816;9.930;2023-04-24T10:14:16;96089.81;;;11.65;63.14
78210;BME280;67485;48.816;9.930;2023-04-24T10:16:43;96088.09;;;11.64;63.59
78210;BME280;67485;48.816;9.930;2023-04-24T10:19:10;96084.25;;;11.52;63.09
78210;BME280;67485;48.816;9.930;2023-04-24T10:21:36;96099.22;;;11.28;62.56
78210;BME280;67485;48.816;9.930;2023-04-24T10:24:12;96098.03;;;11.14;64.12
78210;BME280;67485;48.816;9.930;2023-04-24T10:26:38;96106.56;;;10.97;65.08
78210;BME280;67485;48.816;9.930;2023-04-24T10:29:05;96113.25;;;10.82;64.50
78210;BME280;67485;48.816;9.930;2023-04-24T10:31:36;96116.25;;;11.17;64.28
78210;BME280;67485;48.816;9.930;2023-04-24T10:34:03;96110.25;;;11.36;63.55
78210;BME280;67485;48.816;9.930;2023-04-24T10:36:30;96106.22;;;11.70;62.95
78210;BME280;67485;48.816;9.930;2023-04-24T10:38:59;96107.53;;;11.60;62.11
78210;BME280;67485;48.816;9.930;2023-04-24T10:41:26;96116.53;;;11.75;61.14
78210;BME280;67485;48.816;9.930;2023-04-24T10:44:12;96106.59;;;12.23;60.59
78210;BME280;67485;48.816;9.930;2023-04-24T10:46:43;96110.47;;;12.54;59.94
78210;BME280;67485;48.816;9.930;2023-04-24T10:49:09;96106.44;;;13.21;56.97
78210;BME280;67485;48.816;9.930;2023-04-24T10:51:48;96111.53;;;14.30;54.30
78210;BME280;67485;48.816;9.930;2023-04-24T10:54:27;96113.41;;;13.76;54.40
78210;BME280;67485;48.816;9.930;2023-04-24T10:59:46;96116.66;;;12.72;56.97
78210;BME280;67485;48.816;9.930;2023-04-24T11:02:16;96119.34;;;12.51;58.43
78210;BME280;67485;48.816;9.930;2023-04-24T11:04:42;96119.88;;;12.20;60.03
78210;BME280;67485;48.816;9.930;2023-04-24T11:07:12;96124.81;;;12.07;59.77
78210;BME280;67485;48.816;9.930;2023-04-24T11:09:38;96126.88;;;12.19;58.24
78210;BME280;67485;48.816;9.930;2023-04-24T11:12:10;96125.47;;;12.90;56.16
78210;BME280;67485;48.816;9.930;2023-04-24T11:17:35;96126.03;;;13.52;54.72
78210;BME280;67485;48.816;9.930;2023-04-24T11:20:10;96125.34;;;13.84;52.81
78210;BME280;67485;48.816;9.930;2023-04-24T11:22:38;96120.63;;;15.53;48.27
78210;BME280;67485;48.816;9.930;2023-04-24T11:25:10;96117.19;;;16.43;45.55
78210;BME280;67485;48.816;9.930;2023-04-24T11:27:42;96111.19;;;17.79;43.05
78210;BME280;67485;48.816;9.930;2023-04-24T11:30:09;96115.38;;;17.96;42.25
78210;BME280;67485;48.816;9.930;2023-04-24T11:32:37;96126.22;;;15.63;43.24
78210;BME280;67485;48.816;9.930;2023-04-24T11:35:13;96127.03;;;14.36;47.50
78210;BME280;67485;48.816;9.930;2023-04-24T11:37:42;96140.22;;;13.85;47.53
78210;BME280;67485;48.816;9.930;2023-04-24T11:40:12;96133.59;;;13.41;47.66
78210;BME280;67485;48.816;9.930;2023-04-24T11:42:40;96143.41;;;13.18;50.00
78210;BME280;67485;48.816;9.930;2023-04-24T11:45:08;96141.16;;;12.91;51.44
78210;BME280;67485;48.816;9.930;2023-04-24T11:47:35;96152.03;;;12.84;51.52
78210;BME280;67485;48.816;9.930;2023-04-24T11:50:01;96164.31;;;12.64;51.98
78210;BME280;67485;48.816;9.930;2023-04-24T11:52:28;96145.06;;;12.44;51.50
78210;BME280;67485;48.816;9.930;2023-04-24T11:54:54;96144.00;;;12.48;53.15
78210;BME280;67485;48.816;9.930;2023-04-24T11:57:21;96145.34;;;12.18;52.63
78210;BME280;67485;48.816;9.930;2023-04-24T11:59:48;96154.06;;;12.39;53.58
78210;BME280;67485;48.816;9.930;2023-04-24T12:02:24;96153.03;;;12.22;53.23
78210;BME280;67485;48.816;9.930;2023-04-24T12:04:55;96164.13;;;12.29;53.42
78210;BME280;67485;48.816;9.930;2023-04-24T12:07:22;96162.03;;;12.56;52.54
78210;BME280;67485;48.816;9.930;2023-04-24T12:09:56;96163.03;;;12.92;53.20
78210;BME280;67485;48.816;9.930;2023-04-24T12:12:25;96156.22;;;13.26;52.19
78210;BME280;67485;48.816;9.930;2023-04-24T12:14:56;96158.91;;;13.05;51.17
78210;BME280;67485;48.816;9.930;2023-04-24T12:17:25;96163.34;;;13.05;51.50
78210;BME280;67485;48.816;9.930;2023-04-24T12:19:52;96157.75;;;13.30;52.13
78210;BME280;67485;48.816;9.930;2023-04-24T12:22:19;96179.97;;;12.86;51.99
78210;BME280;67485;48.816;9.930;2023-04-24T12:25:04;96182.78;;;12.23;53.81
78210;BME280;67485;48.816;9.930;2023-04-24T12:27:31;96181.00;;;12.03;54.88
78210;BME280;67485;48.816;9.930;2023-04-24T12:29:59;96185.00;;;11.91;55.77
78210;BME280;67485;48.816;9.930;2023-04-24T12:32:26;96190.84;;;11.75;56.30
78210;BME280;67485;48.816;9.930;2023-04-24T12:34:55;96201.69;;;12.10;56.76
78210;BME280;67485;48.816;9.930;2023-04-24T12:37:23;96191.88;;;12.74;55.44
78210;BME280;67485;48.816;9.930;2023-04-24T12:40:08;96184.06;;;13.30;52.97
78210;BME280;67485;48.816;9.930;2023-04-24T12:42:36;96183.22;;;13.49;51.97
78210;BME280;67485;48.816;9.930;2023-04-24T12:45:07;96177.25;;;13.26;52.30
78210;BME280;67485;48.816;9.930;2023-04-24T12:47:34;96184.00;;;12.74;53.46
78210;BME280;67485;48.816;9.930;2023-04-24T12:50:01;96181.44;;;12.33;54.80
78210;BME280;67485;48.816;9.930;2023-04-24T12:52:28;96182.13;;;12.18;55.23
78210;BME280;67485;48.816;9.930;2023-04-24T12:54:56;96186.56;;;11.95;55.43
78210;BME280;67485;48.816;9.930;2023-04-24T12:57:29;96187.56;;;11.70;56.08
78210;BME280;67485;48.816;9.930;2023-04-24T12:59:56;96179.53;;;11.52;57.02
78210;BME280;67485;48.816;9.930;2023-04-24T13:02:23;96191.25;;;11.44;57.96
78210;BME280;67485;48.816;9.930;2023-04-24T13:04:49;96202.97;;;11.35;59.61
78210;BME280;67485;48.816;9.930;2023-04-24T13:07:15;96195.47;;;11.26;59.72
78210;BME280;67485;48.816;9.930;2023-04-24T13:09:42;96202.63;;;11.44;59.26
78210;BME280;67485;48.816;9.930;2023-04-24T13:12:08;96197.41;;;11.65;59.23